Lindale, Georgia
Current Conditions -  °F | °C
As of 4:38 AM on Sunday 26 Oct 2014 (Local Time) from KRMG Reporting Station
Broken Clouds Broken Clouds  
Wind Chill: 51°   Ceiling: 300
Heat Index: 51°   Visibility: 9mi
Dew Point: 50°   Wind: 0mph
Humidity: 96%   Direction: NA
Pressure: 30"   Gusts: NA
Location:  34.19°N, 85.17°W
Report Text: KRMG 260838Z AUTO 00000KT 9SM BKN003 11/10 A3000 RMK AO2 T01060100
Loading
Personal Weather Stations






























Interactive Weather Map
Tropical Storm Tracking
New forecast layout! Learn more

10-Day Weather Forecast

Advertisements
Track Severe Weather on mobile